createdAt,value
2022-09-12T00:01:36.446Z,9.37
2022-09-12T00:04:06.334Z,9.07
2022-09-12T00:06:36.359Z,9.60
2022-09-12T00:09:08.650Z,8.80
2022-09-12T00:11:37.518Z,8.97
2022-09-12T00:14:06.815Z,8.83
2022-09-12T00:16:38.073Z,9.10
2022-09-12T00:19:10.706Z,9.57
2022-09-12T00:21:41.096Z,8.17
2022-09-12T00:24:09.963Z,9.60
2022-09-12T00:26:40.090Z,8.07
2022-09-12T00:29:08.234Z,8.23
2022-09-12T00:31:36.847Z,8.73
2022-09-12T00:34:04.941Z,8.97
2022-09-12T00:36:36.818Z,10.00
2022-09-12T00:39:05.537Z,9.13
2022-09-12T00:41:36.107Z,8.20
2022-09-12T00:44:20.597Z,8.87
2022-09-12T00:46:51.605Z,8.10
2022-09-12T00:49:24.210Z,7.40
2022-09-12T00:51:56.996Z,7.93
2022-09-12T00:54:28.950Z,8.37
2022-09-12T00:57:00.766Z,8.37
2022-09-12T00:59:33.522Z,8.73
2022-09-12T01:02:02.259Z,7.90
2022-09-12T01:04:31.442Z,7.60
2022-09-12T01:07:00.980Z,7.10
2022-09-12T01:09:29.144Z,7.00
2022-09-12T01:11:58.020Z,6.70
2022-09-12T01:14:26.622Z,7.00
2022-09-12T01:16:54.883Z,7.30
2022-09-12T01:19:52.263Z,7.33
2022-09-12T01:22:37.712Z,6.93
2022-09-12T01:25:23.893Z,7.07
2022-09-12T01:28:09.572Z,7.00
2022-09-12T01:30:51.572Z,7.30
2022-09-12T01:33:55.692Z,6.87
2022-09-12T01:36:38.563Z,7.03
2022-09-12T01:39:17.882Z,6.87
2022-09-12T01:41:54.519Z,6.00
2022-09-12T01:44:33.327Z,6.13
2022-09-12T01:47:09.384Z,6.37
2022-09-12T01:49:47.380Z,7.27
2022-09-12T01:52:22.746Z,7.50
2022-09-12T01:54:54.596Z,7.03
2022-09-12T01:57:28.426Z,7.60
2022-09-12T02:00:01.340Z,7.37
2022-09-12T02:02:36.507Z,7.50
2022-09-12T02:05:11.621Z,7.20
2022-09-12T02:07:46.889Z,7.60
2022-09-12T02:10:17.901Z,8.60
2022-09-12T02:12:49.720Z,7.97
2022-09-12T02:15:24.759Z,8.40
2022-09-12T02:18:01.072Z,8.13
2022-09-12T02:20:51.128Z,8.67
2022-09-12T02:23:25.310Z,9.13
2022-09-12T02:25:58.100Z,8.77
2022-09-12T02:28:30.166Z,9.50
2022-09-12T02:31:10.723Z,9.13
2022-09-12T02:33:47.899Z,10.20
2022-09-12T02:36:23.999Z,9.80
2022-09-12T02:38:52.393Z,9.23
2022-09-12T02:41:22.158Z,10.03
2022-09-12T02:43:54.615Z,10.23
2022-09-12T02:46:26.480Z,9.77
2022-09-12T02:48:58.768Z,11.00
2022-09-12T02:51:27.951Z,10.73
2022-09-12T02:53:58.790Z,10.40
2022-09-12T02:56:31.356Z,11.13
2022-09-12T02:59:03.549Z,10.33
2022-09-12T03:01:51.420Z,10.10
2022-09-12T03:04:44.712Z,9.83
2022-09-12T03:07:20.595Z,10.57
2022-09-12T03:09:58.362Z,11.47
2022-09-12T03:12:40.756Z,11.03
2022-09-12T03:15:18.693Z,11.37
2022-09-12T03:18:06.413Z,10.80
2022-09-12T03:20:46.639Z,11.23
2022-09-12T03:23:25.058Z,11.57
2022-09-12T03:25:57.858Z,11.60
2022-09-12T03:28:29.169Z,11.57
2022-09-12T03:30:58.136Z,12.63
2022-09-12T03:33:28.677Z,11.63
2022-09-12T03:35:58.811Z,11.43
2022-09-12T03:38:27.030Z,11.53
2022-09-12T03:40:55.196Z,11.77
2022-09-12T03:43:23.283Z,11.17
2022-09-12T03:45:53.824Z,10.67
2022-09-12T03:48:22.166Z,11.53
2022-09-12T03:50:50.283Z,11.60
2022-09-12T03:53:19.740Z,11.17
2022-09-12T03:55:49.860Z,11.10
2022-09-12T03:58:18.020Z,10.80
2022-09-12T04:00:46.282Z,11.23
2022-09-12T04:03:16.942Z,10.33
2022-09-12T04:05:47.872Z,11.10
2022-09-12T04:08:16.209Z,10.83
2022-09-12T04:10:46.962Z,10.87
2022-09-12T04:13:15.201Z,10.33
2022-09-12T04:15:43.320Z,9.73
2022-09-12T04:18:11.428Z,12.47
2022-09-12T04:20:39.482Z,12.23
2022-09-12T04:23:07.678Z,11.70
2022-09-12T04:25:35.813Z,11.50
2022-09-12T04:28:05.307Z,12.40
2022-09-12T04:30:35.365Z,13.37
2022-09-12T04:33:08.247Z,11.30
2022-09-12T04:35:37.195Z,12.47
2022-09-12T04:38:05.276Z,11.37
2022-09-12T04:40:33.391Z,11.63
2022-09-12T04:43:01.547Z,11.70
2022-09-12T04:45:31.097Z,11.90
2022-09-12T04:48:01.619Z,12.03
2022-09-12T04:50:29.719Z,11.83
2022-09-12T04:52:58.141Z,12.13
2022-09-12T04:55:28.883Z,12.43
2022-09-12T04:57:59.280Z,12.47
2022-09-12T05:00:27.374Z,11.90
2022-09-12T05:02:56.836Z,12.13
2022-09-12T05:05:24.936Z,12.90
2022-09-12T05:07:55.454Z,12.03
2022-09-12T05:10:23.832Z,12.47
2022-09-12T05:12:54.272Z,11.77
2022-09-12T05:15:22.399Z,13.73
2022-09-12T05:17:50.889Z,12.50
2022-09-12T05:20:20.413Z,12.27
2022-09-12T05:22:48.534Z,13.38
2022-09-12T05:25:17.179Z,12.30
2022-09-12T05:27:49.948Z,12.13
2022-09-12T05:30:18.740Z,11.17
2022-09-12T05:32:49.646Z,11.47
2022-09-12T05:35:18.453Z,12.07
2022-09-12T05:37:50.219Z,12.10
2022-09-12T05:40:19.346Z,12.43
2022-09-12T05:42:48.000Z,12.43
2022-09-12T05:45:16.790Z,13.13
2022-09-12T05:47:47.828Z,13.60
2022-09-12T05:50:16.053Z,13.77
2022-09-12T05:52:44.191Z,13.40
2022-09-12T05:55:13.608Z,13.63
2022-09-12T05:57:50.426Z,13.07
2022-09-12T06:00:19.170Z,13.63
2022-09-12T06:02:53.693Z,13.30
2022-09-12T06:05:21.851Z,13.13
2022-09-12T06:07:52.305Z,13.33
2022-09-12T06:10:22.305Z,14.60
2022-09-12T06:12:50.418Z,14.90
2022-09-12T06:15:20.579Z,14.47
2022-09-12T06:17:51.490Z,14.13
2022-09-12T06:20:20.893Z,13.07
2022-09-12T06:22:49.153Z,15.07
2022-09-12T06:25:17.338Z,15.33
2022-09-12T06:27:47.564Z,14.10
2022-09-12T06:30:15.768Z,13.90
2022-09-12T06:32:43.946Z,14.23
2022-09-12T06:35:12.339Z,16.87
2022-09-12T06:37:40.720Z,14.13
2022-09-12T06:40:10.686Z,13.57
2022-09-12T06:42:53.195Z,13.77
2022-09-12T06:49:16.687Z,15.37
2022-09-12T06:52:44.433Z,13.80
2022-09-12T06:55:19.450Z,13.67
2022-09-12T06:58:10.720Z,12.00
2022-09-12T07:00:39.949Z,13.43
2022-09-12T07:03:19.531Z,11.97
2022-09-12T07:06:14.213Z,12.47
2022-09-12T07:08:49.604Z,14.23
2022-09-12T07:11:22.809Z,13.03
2022-09-12T07:18:03.748Z,12.83
2022-09-12T07:20:44.318Z,14.63
2022-09-12T07:23:12.615Z,12.93
2022-09-12T07:29:25.579Z,11.27
2022-09-12T07:32:30.307Z,12.50
2022-09-12T07:35:32.749Z,13.20
2022-09-12T07:38:08.568Z,12.50
2022-09-12T07:41:22.347Z,11.37
2022-09-12T07:44:36.189Z,11.00
2022-09-12T07:47:09.426Z,11.70
2022-09-12T07:50:31.300Z,10.83
2022-09-12T07:53:28.238Z,10.97
2022-09-12T07:56:05.514Z,12.27
2022-09-12T08:02:16.805Z,11.20
2022-09-12T08:10:31.506Z,10.70
2022-09-12T08:13:24.550Z,10.43
2022-09-12T08:25:18.897Z,11.50
2022-09-12T08:28:00.958Z,12.10
2022-09-12T08:31:06.923Z,10.90
2022-09-12T08:33:41.480Z,11.03
2022-09-12T08:36:21.625Z,9.93
2022-09-12T08:39:07.094Z,10.00
2022-09-12T08:45:23.538Z,10.57
2022-09-12T08:48:09.830Z,11.40
2022-09-12T08:50:50.190Z,9.70
2022-09-12T08:53:31.009Z,10.83
2022-09-12T08:56:17.868Z,9.57
2022-09-12T08:58:50.160Z,10.83
2022-09-12T09:01:32.068Z,10.37
2022-09-12T09:04:48.298Z,10.13
2022-09-12T09:08:00.334Z,9.83
2022-09-12T09:11:03.093Z,9.67
2022-09-12T09:17:35.647Z,9.70
2022-09-12T09:20:24.633Z,9.13
2022-09-12T09:23:03.108Z,9.83
2022-09-12T09:25:52.628Z,10.90
2022-09-12T09:28:35.935Z,10.47
2022-09-12T09:31:04.932Z,10.47
2022-09-12T09:33:36.954Z,10.40
2022-09-12T09:36:27.558Z,11.10
2022-09-12T09:39:23.588Z,10.30
2022-09-12T09:42:21.451Z,10.90
2022-09-12T09:44:49.994Z,10.17
2022-09-12T09:47:29.585Z,10.43
2022-09-12T09:53:48.439Z,9.20
2022-09-12T09:59:45.234Z,10.03
2022-09-12T10:02:30.247Z,11.07
2022-09-12T10:05:35.630Z,11.63
2022-09-12T10:08:09.504Z,9.87
2022-09-12T10:11:05.469Z,10.50
2022-09-12T10:13:44.395Z,10.27
2022-09-12T10:16:53.821Z,11.00
2022-09-12T10:20:17.840Z,9.37
2022-09-12T10:23:29.737Z,9.90
2022-09-12T10:26:30.497Z,10.63
2022-09-12T10:35:45.418Z,11.57
2022-09-12T10:41:38.190Z,11.33
2022-09-12T10:44:18.151Z,11.37
2022-09-12T10:46:59.352Z,11.83
2022-09-12T10:49:52.157Z,9.90
2022-09-12T10:52:34.873Z,10.77
2022-09-12T10:55:17.282Z,10.53
2022-09-12T10:58:30.240Z,10.37
2022-09-12T11:05:24.707Z,11.37
2022-09-12T11:08:25.523Z,11.17
2022-09-12T11:11:10.768Z,10.97
2022-09-12T11:14:30.261Z,10.57
2022-09-12T11:17:17.378Z,9.77
2022-09-12T11:20:31.197Z,9.93
2022-09-12T11:23:34.064Z,8.90
2022-09-12T11:26:22.095Z,8.63
2022-09-12T11:29:12.134Z,8.67
2022-09-12T11:32:23.987Z,10.60
2022-09-12T11:35:05.552Z,9.23
2022-09-12T11:38:00.768Z,9.33
2022-09-12T11:41:09.965Z,8.83
2022-09-12T11:44:11.191Z,6.67
2022-09-12T11:47:58.605Z,6.75
2022-09-12T11:51:09.176Z,4.82
2022-09-12T11:54:17.607Z,5.50
2022-09-12T11:57:12.399Z,5.43
2022-09-12T12:05:57.272Z,3.85
2022-09-12T12:08:32.744Z,3.70
2022-09-12T12:11:05.034Z,3.83
2022-09-12T12:13:48.142Z,4.47
2022-09-12T12:16:26.569Z,3.60
2022-09-12T12:19:00.270Z,4.72
2022-09-12T12:21:51.981Z,4.18
2022-09-12T12:24:50.793Z,3.78
2022-09-12T12:27:59.147Z,4.05
2022-09-12T12:31:20.851Z,4.03
2022-09-12T12:37:56.953Z,3.08
2022-09-12T12:40:36.654Z,3.83
2022-09-12T12:43:31.007Z,3.47
2022-09-12T12:46:11.596Z,3.30
2022-09-12T12:49:08.368Z,3.33
2022-09-12T12:52:30.630Z,3.70
2022-09-12T12:55:05.024Z,3.63
2022-09-12T13:04:05.722Z,3.20
2022-09-12T13:06:40.752Z,4.18
2022-09-12T13:09:31.777Z,3.55
2022-09-12T13:12:10.724Z,3.20
2022-09-12T13:14:56.187Z,2.63
2022-09-12T13:20:29.946Z,3.60
2022-09-12T13:23:02.577Z,3.42
2022-09-12T13:25:49.981Z,3.45
2022-09-12T13:28:46.217Z,4.03
2022-09-12T13:31:25.830Z,3.53
2022-09-12T13:34:21.610Z,3.47
2022-09-12T13:37:48.601Z,3.40
2022-09-12T13:40:57.202Z,3.50
2022-09-12T13:46:41.010Z,4.45
2022-09-12T13:49:35.282Z,3.58
2022-09-12T13:52:34.449Z,3.70
2022-09-12T13:55:49.862Z,3.53
2022-09-12T13:58:30.893Z,3.75
2022-09-12T14:01:51.002Z,4.00
2022-09-12T14:04:50.624Z,4.03
2022-09-12T14:07:56.290Z,3.67
2022-09-12T14:10:43.801Z,3.92
2022-09-12T14:13:17.546Z,3.10
2022-09-12T14:16:02.138Z,4.13
2022-09-12T14:19:05.664Z,3.67
2022-09-12T14:21:46.873Z,3.83
2022-09-12T14:24:35.387Z,3.90
2022-09-12T14:30:06.561Z,3.40
2022-09-12T14:32:43.332Z,3.25
2022-09-12T14:35:21.962Z,3.85
2022-09-12T14:38:06.081Z,3.60
2022-09-12T14:40:45.594Z,3.33
2022-09-12T14:43:21.929Z,2.35
2022-09-12T14:46:27.812Z,2.58
2022-09-12T14:49:01.181Z,2.92
2022-09-12T14:51:33.850Z,3.15
2022-09-12T14:54:06.059Z,3.15
2022-09-12T14:56:42.487Z,2.90
2022-09-12T14:59:29.889Z,2.75
2022-09-12T15:02:37.186Z,2.85
2022-09-12T15:05:26.616Z,3.20
2022-09-12T15:07:57.873Z,2.95
2022-09-12T15:10:31.163Z,2.63
2022-09-12T15:13:21.804Z,2.53
2022-09-12T15:15:52.438Z,2.30
2022-09-12T15:18:22.447Z,2.60
2022-09-12T15:20:53.414Z,2.63
2022-09-12T15:23:33.459Z,2.58
2022-09-12T15:26:05.777Z,2.40
2022-09-12T15:28:47.545Z,2.70
2022-09-12T15:31:24.719Z,2.45
2022-09-12T15:33:56.990Z,2.10
2022-09-12T15:36:26.165Z,1.92
2022-09-12T15:38:54.499Z,2.10
2022-09-12T15:41:27.743Z,1.95
2022-09-12T15:43:56.761Z,2.53
2022-09-12T15:46:25.275Z,2.05
2022-09-12T15:48:55.635Z,1.98
2022-09-12T15:51:26.189Z,1.80
2022-09-12T15:53:54.550Z,2.30
2022-09-12T15:56:24.125Z,1.90
2022-09-12T15:58:59.194Z,1.98
2022-09-12T16:01:28.773Z,2.35
2022-09-12T16:03:57.390Z,1.88
2022-09-12T16:06:27.865Z,2.45
2022-09-12T16:08:56.287Z,2.58
2022-09-12T16:11:28.070Z,2.53
2022-09-12T16:13:58.621Z,2.67
2022-09-12T16:16:29.026Z,2.47
2022-09-12T16:18:57.303Z,2.40
2022-09-12T16:21:26.214Z,2.40
2022-09-12T16:23:54.429Z,2.72
2022-09-12T16:26:22.604Z,2.22
2022-09-12T16:28:57.298Z,2.22
2022-09-12T16:31:26.239Z,2.35
2022-09-12T16:33:54.693Z,2.22
2022-09-12T16:36:25.004Z,2.85
2022-09-12T16:38:54.978Z,2.00
2022-09-12T16:41:26.421Z,2.10
2022-09-12T16:43:56.478Z,2.20
2022-09-12T16:46:26.302Z,2.22
2022-09-12T16:48:56.110Z,2.63
2022-09-12T16:51:25.943Z,2.60
2022-09-12T16:53:55.669Z,2.00
2022-09-12T16:56:26.879Z,2.42
2022-09-12T16:58:56.796Z,2.30
2022-09-12T17:01:26.576Z,2.10
2022-09-12T17:03:56.485Z,1.95
2022-09-12T17:06:28.556Z,2.40
2022-09-12T17:09:00.748Z,2.60
2022-09-12T17:11:31.714Z,2.50
2022-09-12T17:14:05.332Z,2.30
2022-09-12T17:16:36.267Z,2.47
2022-09-12T17:19:07.435Z,2.10
2022-09-12T17:21:36.438Z,2.40
2022-09-12T17:24:07.208Z,2.22
2022-09-12T17:26:35.888Z,2.28
2022-09-12T17:29:14.882Z,2.50
2022-09-12T17:31:43.884Z,2.15
2022-09-12T17:34:16.269Z,2.63
2022-09-12T17:36:45.561Z,2.40
2022-09-12T17:39:16.621Z,2.30
2022-09-12T17:41:47.186Z,2.58
2022-09-12T17:44:17.016Z,2.45
2022-09-12T17:46:45.224Z,2.42
2022-09-12T17:49:15.015Z,2.30
2022-09-12T17:51:43.810Z,2.23
2022-09-12T17:54:14.023Z,2.47
2022-09-12T17:56:45.645Z,2.60
2022-09-12T17:59:18.470Z,2.90
2022-09-12T18:02:04.530Z,2.28
2022-09-12T18:04:33.101Z,2.60
2022-09-12T18:07:01.458Z,2.50
2022-09-12T18:09:30.680Z,2.90
2022-09-12T18:11:59.543Z,2.50
2022-09-12T18:14:29.396Z,2.70
2022-09-12T18:17:00.258Z,2.90
2022-09-12T18:19:29.263Z,2.60
2022-09-12T18:21:57.951Z,2.90
2022-09-12T18:24:29.063Z,3.10
2022-09-12T18:26:59.533Z,2.70
2022-09-12T18:29:29.376Z,2.93
2022-09-12T18:31:57.625Z,2.93
2022-09-12T18:34:28.128Z,2.90
2022-09-12T18:36:56.299Z,3.10
2022-09-12T18:39:27.660Z,3.30
2022-09-12T18:41:56.711Z,3.37
2022-09-12T18:44:24.820Z,3.03
2022-09-12T18:46:54.340Z,3.37
2022-09-12T18:49:22.416Z,3.00
2022-09-12T18:51:50.535Z,3.23
2022-09-12T18:54:19.158Z,3.40
2022-09-12T18:56:49.748Z,3.33
2022-09-12T18:59:17.981Z,3.67
2022-09-12T19:01:46.261Z,3.70
2022-09-12T19:04:16.519Z,4.10
2022-09-12T19:06:46.081Z,3.90
2022-09-12T19:09:16.527Z,3.17
2022-09-12T19:11:49.553Z,3.57
2022-09-12T19:14:18.758Z,3.80
2022-09-12T19:16:47.061Z,3.47
2022-09-12T19:19:16.655Z,3.50
2022-09-12T19:21:44.890Z,3.40
2022-09-12T19:24:14.460Z,3.40
2022-09-12T19:26:43.073Z,3.70
2022-09-12T19:29:14.327Z,4.20
2022-09-12T19:31:42.829Z,4.00
2022-09-12T19:34:12.214Z,3.70
2022-09-12T19:36:47.099Z,3.53
2022-09-12T19:39:16.874Z,3.73
2022-09-12T19:41:45.600Z,3.70
2022-09-12T19:44:14.703Z,3.93
2022-09-12T19:46:43.396Z,3.53
2022-09-12T19:49:13.072Z,3.83
2022-09-12T19:51:43.883Z,3.80
2022-09-12T19:54:12.251Z,3.80
2022-09-12T19:56:40.516Z,4.03
2022-09-12T19:59:08.841Z,3.80
2022-09-12T20:01:39.622Z,3.70
2022-09-12T20:04:07.871Z,4.17
2022-09-12T20:06:36.727Z,3.33
2022-09-12T20:09:08.719Z,3.67
2022-09-12T20:11:36.863Z,4.10
2022-09-12T20:14:05.039Z,3.63
2022-09-12T20:16:33.573Z,3.90
2022-09-12T20:19:06.089Z,3.63
2022-09-12T20:21:35.940Z,3.60
2022-09-12T20:24:07.493Z,3.67
2022-09-12T20:26:37.117Z,4.03
2022-09-12T20:29:06.774Z,3.77
2022-09-12T20:31:36.186Z,3.90
2022-09-12T20:34:04.633Z,3.10
2022-09-12T20:36:35.523Z,3.90
2022-09-12T20:39:04.901Z,3.67
2022-09-12T20:41:39.369Z,4.20
2022-09-12T20:44:10.213Z,4.03
2022-09-12T20:46:40.112Z,3.73
2022-09-12T20:49:08.856Z,3.93
2022-09-12T20:51:39.478Z,4.00
2022-09-12T20:54:08.543Z,3.90
2022-09-12T20:56:38.751Z,4.33
2022-09-12T20:59:07.303Z,5.00
2022-09-12T21:01:35.477Z,4.47
2022-09-12T21:04:04.110Z,4.50
2022-09-12T21:06:32.450Z,4.57
2022-09-12T21:09:00.739Z,4.70
2022-09-12T21:11:29.576Z,4.37
2022-09-12T21:13:59.102Z,4.50
2022-09-12T21:16:28.237Z,4.53
2022-09-12T21:18:59.052Z,4.20
2022-09-12T21:21:29.596Z,4.83
2022-09-12T21:23:59.875Z,4.17
2022-09-12T21:26:30.697Z,4.23
2022-09-12T21:29:02.463Z,4.87
2022-09-12T21:31:30.582Z,4.90
2022-09-12T21:33:58.722Z,4.73
2022-09-12T21:36:27.210Z,4.33
2022-09-12T21:38:59.164Z,4.20
2022-09-12T21:41:29.794Z,4.83
2022-09-12T21:43:57.882Z,4.70
2022-09-12T21:46:27.422Z,4.50
2022-09-12T21:48:55.588Z,4.10
2022-09-12T21:51:26.175Z,4.83
2022-09-12T21:53:56.307Z,4.37
2022-09-12T21:56:24.827Z,4.63
2022-09-12T21:58:52.954Z,4.37
2022-09-12T22:01:23.648Z,4.43
2022-09-12T22:03:53.230Z,3.97
2022-09-12T22:06:22.599Z,4.93
2022-09-12T22:08:53.076Z,4.43
2022-09-12T22:11:21.281Z,4.63
2022-09-12T22:13:51.421Z,4.77
2022-09-12T22:16:21.843Z,4.97
2022-09-12T22:18:50.663Z,4.70
2022-09-12T22:21:21.985Z,4.57
2022-09-12T22:24:07.363Z,4.67
2022-09-12T22:26:42.092Z,4.53
2022-09-12T22:29:11.142Z,5.07
2022-09-12T22:31:41.999Z,5.00
2022-09-12T22:34:10.131Z,4.83
2022-09-12T22:36:39.697Z,4.77
2022-09-12T22:39:08.584Z,5.37
2022-09-12T22:41:38.725Z,5.20
2022-09-12T22:44:07.463Z,5.00
2022-09-12T22:46:35.653Z,4.83
2022-09-12T22:49:04.693Z,5.03
2022-09-12T22:51:35.361Z,4.70
2022-09-12T22:54:05.604Z,4.77
2022-09-12T22:56:34.113Z,4.87
2022-09-12T22:59:04.704Z,5.00
2022-09-12T23:01:33.237Z,4.57
2022-09-12T23:04:01.416Z,4.97
2022-09-12T23:06:29.599Z,5.07
2022-09-12T23:08:57.683Z,5.10
2022-09-12T23:11:27.792Z,4.60
2022-09-12T23:13:55.869Z,4.43
2022-09-12T23:16:25.444Z,4.50
2022-09-12T23:18:53.848Z,4.70
2022-09-12T23:21:22.878Z,4.50
2022-09-12T23:23:51.525Z,4.07
2022-09-12T23:26:23.200Z,4.97
2022-09-12T23:28:53.995Z,4.60
2022-09-12T23:31:23.592Z,4.73
2022-09-12T23:33:54.156Z,4.87
2022-09-12T23:36:23.231Z,4.90
2022-09-12T23:38:51.416Z,5.17
2022-09-12T23:41:20.160Z,4.83
2022-09-12T23:43:52.006Z,5.10
2022-09-12T23:46:21.371Z,4.43
2022-09-12T23:48:53.199Z,4.93
2022-09-12T23:51:22.713Z,5.33
2022-09-12T23:53:50.783Z,4.90
2022-09-12T23:56:18.841Z,4.60
2022-09-12T23:58:46.942Z,4.83
